Time;durP1;ratioP1;P1;durP2;ratioP2;P2;SDS_P1;SDS_P2;PMS_P1;PMS_P2;Temp;Humidity;BMP_temperature;BMP_pressure;BME280_temperature;BME280_humidity;BME280_pressure;Samples;Min_cycle;Max_cycle;Signal;HPM_P1;HPM_P2
2023/10/03 00:00:33;;;;;;;43.38;28.70;;;17.10;99.90;;;;;;4958691;28;90955;-36
2023/10/03 00:03:08;;;;;;;44.75;30.10;;;17.20;99.90;;;;;;4958743;28;90157;-34
2023/10/03 00:05:35;;;;;;;41.65;27.05;;;17.10;99.90;;;;;;4953146;28;89141;-33
2023/10/03 00:08:04;;;;;;;49.03;30.20;;;17.10;99.90;;;;;;4958716;28;89500;-33
2023/10/03 00:10:32;;;;;;;37.65;27.83;;;17.10;99.90;;;;;;4959546;28;89407;-35
2023/10/03 00:12:59;;;;;;;40.63;27.67;;;17.10;99.90;;;;;;4957797;28;89642;-34
2023/10/03 00:15:26;;;;;;;38.80;26.50;;;17.10;99.90;;;;;;4957798;28;90658;-35
2023/10/03 00:17:54;;;;;;;43.60;28.90;;;17.10;99.90;;;;;;4957907;28;89415;-36
2023/10/03 00:20:20;;;;;;;44.55;27.58;;;17.10;99.90;;;;;;4958723;28;90065;-33
2023/10/03 00:22:46;;;;;;;41.33;28.38;;;17.00;99.90;;;;;;4957596;28;90244;-35
2023/10/03 00:25:19;;;;;;;41.22;26.95;;;17.00;99.90;;;;;;4956258;28;90743;-33
2023/10/03 00:27:46;;;;;;;41.13;27.48;;;17.00;99.90;;;;;;4948333;28;91646;-35
2023/10/03 00:30:14;;;;;;;41.97;26.55;;;17.00;99.90;;;;;;4950939;28;89628;-34
2023/10/03 00:32:42;;;;;;;44.20;25.70;;;17.00;99.90;;;;;;4956464;28;90459;-36
2023/10/03 00:35:08;;;;;;;38.15;25.15;;;17.00;99.90;;;;;;4957256;28;89406;-36
2023/10/03 00:37:38;;;;;;;36.55;24.55;;;17.00;99.90;;;;;;4958496;28;89701;-33
2023/10/03 00:40:17;;;;;;;40.03;24.33;;;17.00;99.90;;;;;;4957351;28;90519;-35
2023/10/03 00:42:50;;;;;;;33.47;21.40;;;17.10;99.90;;;;;;4958414;28;90308;-34
2023/10/03 00:45:21;;;;;;;37.50;23.08;;;17.10;99.90;;;;;;4957312;28;90307;-36
2023/10/03 00:47:50;;;;;;;32.00;21.38;;;17.10;99.90;;;;;;4957785;28;90347;-36
2023/10/03 00:50:20;;;;;;;35.95;21.33;;;17.20;99.90;;;;;;4956867;28;89248;-36
2023/10/03 00:53:12;;;;;;;28.95;19.83;;;17.20;99.90;;;;;;4957907;28;90280;-36
2023/10/03 00:55:41;;;;;;;34.75;21.25;;;17.20;99.90;;;;;;4958099;28;90060;-33
2023/10/03 01:00:38;;;;;;;34.05;22.50;;;17.30;99.90;;;;;;4956222;28;89489;-36
2023/10/03 01:03:24;;;;;;;35.47;21.75;;;17.30;99.90;;;;;;4939617;28;90133;-35
2023/10/03 01:05:52;;;;;;;34.75;23.35;;;17.30;99.90;;;;;;4954138;28;90309;-32
2023/10/03 01:08:18;;;;;;;35.67;22.05;;;17.30;99.90;;;;;;4958107;28;89750;-34
2023/10/03 01:10:43;;;;;;;28.73;20.40;;;17.30;99.90;;;;;;4957817;28;87798;-36
2023/10/03 01:13:12;;;;;;;35.45;22.50;;;17.30;99.90;;;;;;4957630;28;89560;-35
2023/10/03 01:15:39;;;;;;;39.25;21.80;;;17.30;99.90;;;;;;4957188;28;91037;-34
2023/10/03 01:18:05;;;;;;;34.60;21.63;;;17.30;99.90;;;;;;4956839;28;90576;-36
2023/10/03 01:20:40;;;;;;;28.70;20.52;;;17.30;99.90;;;;;;4956914;28;89141;-34
2023/10/03 01:23:09;;;;;;;33.40;20.50;;;17.30;99.90;;;;;;4957612;28;89853;-35
2023/10/03 01:25:41;;;;;;;37.60;21.85;;;17.40;99.90;;;;;;4956822;28;89659;-35
2023/10/03 01:28:11;;;;;;;35.13;21.05;;;17.40;99.90;;;;;;4955902;28;90017;-35
2023/10/03 01:30:37;;;;;;;38.72;23.58;;;17.40;99.90;;;;;;4957202;28;88825;-36
2023/10/03 01:33:04;;;;;;;32.60;21.63;;;17.40;99.90;;;;;;4957556;28;90355;-33
2023/10/03 01:35:30;;;;;;;34.63;23.17;;;17.40;99.90;;;;;;4955720;28;88353;-35
2023/10/03 01:37:55;;;;;;;40.78;22.83;;;17.40;99.90;;;;;;4955752;28;89280;-34
2023/10/03 01:40:22;;;;;;;32.70;21.60;;;17.50;99.90;;;;;;4956554;28;88344;-34
2023/10/03 01:42:47;;;;;;;33.45;22.08;;;17.40;99.90;;;;;;4956973;28;89106;-37
2023/10/03 01:45:17;;;;;;;39.55;20.65;;;17.40;99.90;;;;;;4944787;28;90118;-33
2023/10/03 01:47:45;;;;;;;28.85;20.88;;;17.40;99.90;;;;;;4948864;28;89625;-35
2023/10/03 01:50:14;;;;;;;;;;;17.40;99.90;;;;;;4947352;28;90159;-33
2023/10/03 01:52:41;;;;;;;36.75;21.73;;;17.40;99.90;;;;;;4946121;28;90663;-34
2023/10/03 01:55:12;;;;;;;36.60;21.75;;;17.40;99.90;;;;;;4941413;28;89468;-34
2023/10/03 01:57:39;;;;;;;34.75;21.55;;;17.40;99.90;;;;;;4940466;28;89966;-35
2023/10/03 02:00:25;;;;;;;36.35;22.08;;;17.40;99.90;;;;;;4946264;28;90102;-36
2023/10/03 02:03:05;;;;;;;33.20;21.02;;;17.40;99.90;;;;;;4949458;28;88850;-33
2023/10/03 02:05:38;;;;;;;30.05;20.85;;;17.40;99.90;;;;;;4944624;28;90783;-34
2023/10/03 02:08:10;;;;;;;34.85;19.95;;;17.40;99.90;;;;;;4949379;28;90653;-34
2023/10/03 02:10:36;;;;;;;35.42;21.23;;;17.40;99.90;;;;;;4949626;28;89599;-33
2023/10/03 02:13:12;;;;;;;26.95;19.35;;;17.40;99.90;;;;;;4948571;28;91265;-35
2023/10/03 02:15:40;;;;;;;31.13;19.58;;;17.40;99.90;;;;;;4958216;28;90609;-35
2023/10/03 02:18:09;;;;;;;39.35;21.75;;;17.30;99.90;;;;;;4960922;28;89728;-35
2023/10/03 02:20:47;;;;;;;31.40;21.73;;;17.30;99.90;;;;;;4957670;28;89921;-33
2023/10/03 02:23:20;;;;;;;35.35;20.50;;;17.30;99.90;;;;;;4946993;28;90157;-33
2023/10/03 02:25:48;;;;;;;31.52;19.45;;;17.30;99.90;;;;;;4950027;28;89960;-33
2023/10/03 02:28:15;;;;;;;38.47;21.45;;;17.30;99.90;;;;;;4948983;28;88698;-32
2023/10/03 02:30:41;;;;;;;31.10;20.25;;;17.30;99.90;;;;;;4951977;28;88805;-36
2023/10/03 02:33:24;;;;;;;32.70;21.27;;;17.30;99.90;;;;;;4951416;28;90541;-35
2023/10/03 02:35:50;;;;;;;31.90;19.30;;;17.30;99.90;;;;;;4953270;28;89893;-34
2023/10/03 02:38:29;;;;;;;32.88;21.55;;;17.30;99.90;;;;;;4958587;28;89775;-36
2023/10/03 02:40:59;;;;;;;33.60;20.95;;;17.30;99.90;;;;;;4959194;28;90330;-34
2023/10/03 02:43:28;;;;;;;27.75;19.25;;;17.30;99.90;;;;;;4959188;28;89084;-36
2023/10/03 02:45:53;;;;;;;34.55;20.20;;;17.30;99.90;;;;;;4945257;28;90122;-35
2023/10/03 02:48:21;;;;;;;28.00;20.60;;;17.30;99.90;;;;;;4959896;28;90356;-35
2023/10/03 02:50:48;;;;;;;33.47;20.53;;;17.30;99.90;;;;;;4947963;28;89180;-34
2023/10/03 02:53:19;;;;;;;34.50;20.25;;;17.30;99.90;;;;;;4946046;28;89850;-36
2023/10/03 02:55:46;;;;;;;33.05;21.13;;;17.30;99.90;;;;;;4958004;28;89276;-34
2023/10/03 02:58:22;;;;;;;26.98;18.17;;;17.30;99.90;;;;;;4947032;28;90103;-35
2023/10/03 03:00:55;;;;;;;39.75;20.23;;;17.30;99.90;;;;;;4959499;28;88758;-35
2023/10/03 03:03:23;;;;;;;35.88;18.90;;;17.30;99.90;;;;;;4950241;28;90123;-35
2023/10/03 03:05:49;;;;;;;33.17;21.52;;;17.30;99.90;;;;;;4941102;28;90335;-33
2023/10/03 03:08:23;;;;;;;32.20;19.85;;;17.40;99.90;;;;;;4940393;28;90146;-33
2023/10/03 03:10:55;;;;;;;28.70;19.23;;;17.40;99.90;;;;;;4953781;28;88156;-35
2023/10/03 03:13:23;;;;;;;31.77;19.45;;;17.40;99.90;;;;;;4952306;28;90307;-34
2023/10/03 03:15:53;;;;;;;45.75;21.33;;;17.40;99.90;;;;;;4941589;28;88488;-36
2023/10/03 03:18:24;;;;;;;32.70;20.80;;;17.40;99.90;;;;;;4941488;28;89721;-33
2023/10/03 03:20:59;;;;;;;35.88;21.33;;;17.40;99.90;;;;;;4940722;28;89754;-33
2023/10/03 03:23:30;;;;;;;28.30;18.25;;;17.50;99.90;;;;;;4940060;28;90668;-36
2023/10/03 03:26:36;;;;;;;33.90;18.63;;;17.40;99.90;;;;;;4940683;28;89295;-36
2023/10/03 03:28:50;;;;;;;35.55;18.77;;;17.50;99.90;;;;;;4941126;28;89904;-34
2023/10/03 03:31:22;;;;;;;36.78;19.63;;;17.50;99.90;;;;;;4952853;28;89788;-34
2023/10/03 03:34:06;;;;;;;33.63;19.80;;;17.50;99.90;;;;;;4938951;28;90036;-34
2023/10/03 03:36:34;;;;;;;33.40;19.58;;;17.60;99.90;;;;;;4954023;28;89701;-34
2023/10/03 03:39:12;;;;;;;39.90;20.27;;;17.60;99.90;;;;;;4952857;28;88721;-35
2023/10/03 03:41:39;;;;;;;33.72;19.67;;;17.60;99.90;;;;;;4959080;28;90324;-33
2023/10/03 03:44:11;;;;;;;29.52;18.88;;;17.70;99.90;;;;;;4957955;28;90860;-33
2023/10/03 03:46:41;;;;;;;30.70;17.42;;;17.70;99.90;;;;;;4958333;28;90926;-34
2023/10/03 03:49:09;;;;;;;38.40;20.45;;;17.70;99.90;;;;;;4947533;28;90470;-32
2023/10/03 03:51:36;;;;;;;31.67;19.10;;;17.70;99.90;;;;;;4940455;28;88285;-34
2023/10/03 03:54:05;;;;;;;34.90;20.52;;;17.80;99.90;;;;;;4951521;28;90294;-34
2023/10/03 03:56:33;;;;;;;32.15;18.35;;;17.80;99.90;;;;;;4958547;28;90516;-34
2023/10/03 03:58:58;;;;;;;39.53;19.98;;;17.80;99.90;;;;;;4957824;28;89564;-35
2023/10/03 04:01:24;;;;;;;29.42;18.35;;;17.80;99.90;;;;;;4959042;28;89112;-34
2023/10/03 04:03:50;;;;;;;30.63;18.88;;;17.80;99.90;;;;;;4958313;28;90674;-35
2023/10/03 04:06:17;;;;;;;29.38;17.25;;;17.80;99.90;;;;;;4958696;28;89797;-35
2023/10/03 04:08:43;;;;;;;32.35;19.27;;;17.90;99.90;;;;;;4957961;28;90148;-33
2023/10/03 04:11:09;;;;;;;31.60;19.33;;;17.90;99.90;;;;;;4957980;28;90129;-35
2023/10/03 04:14:08;;;;;;;27.90;18.30;;;17.90;99.90;;;;;;4958929;28;90045;-33
2023/10/03 04:16:28;;;;;;;38.08;19.75;;;17.90;99.90;;;;;;4958535;28;89702;-33
2023/10/03 04:18:54;;;;;;;37.08;21.15;;;17.90;99.90;;;;;;4958578;28;88829;-33
2023/10/03 04:21:20;;;;;;;29.55;19.20;;;18.00;99.90;;;;;;4958221;28;89336;-33
2023/10/03 04:23:48;;;;;;;36.03;20.55;;;18.00;99.90;;;;;;4957755;28;90628;-35
2023/10/03 04:26:14;;;;;;;30.67;19.08;;;18.00;99.90;;;;;;4958469;28;89865;-32
2023/10/03 04:28:39;;;;;;;30.95;19.55;;;18.00;99.90;;;;;;4952380;28;90646;-34
2023/10/03 04:31:06;;;;;;;31.20;16.77;;;18.00;99.90;;;;;;4951347;28;88309;-37
2023/10/03 04:33:32;;;;;;;33.38;18.73;;;18.00;99.90;;;;;;4958264;28;88881;-33
2023/10/03 04:36:03;;;;;;;31.35;17.55;;;18.00;99.90;;;;;;4956202;28;90951;-35
2023/10/03 04:38:29;;;;;;;32.08;18.63;;;18.00;99.90;;;;;;4958213;28;91537;-37
2023/10/03 04:40:54;;;;;;;34.15;17.85;;;18.00;99.90;;;;;;4957553;28;90332;-33
2023/10/03 04:43:20;;;;;;;37.05;18.77;;;18.10;99.90;;;;;;4958259;28;90331;-32
2023/10/03 04:45:46;;;;;;;32.35;17.65;;;18.00;99.90;;;;;;4956648;28;90071;-36
2023/10/03 04:48:12;;;;;;;35.75;20.10;;;18.10;99.90;;;;;;4958356;28;89898;-34
2023/10/03 04:50:39;;;;;;;29.58;16.88;;;18.10;99.90;;;;;;4957463;28;88385;-34
2023/10/03 04:53:07;;;;;;;31.27;19.20;;;18.00;99.90;;;;;;4957814;28;90486;-33
2023/10/03 04:55:33;;;;;;;33.83;18.50;;;18.00;99.90;;;;;;4957875;28;89565;-36
2023/10/03 04:57:59;;;;;;;27.45;18.15;;;18.00;99.90;;;;;;4957165;28;91177;-35
2023/10/03 05:00:26;;;;;;;30.23;16.70;;;18.10;99.90;;;;;;4957361;28;89783;-33
2023/10/03 05:02:53;;;;;;;31.08;17.50;;;18.10;99.90;;;;;;4957632;28;90486;-35
2023/10/03 05:05:21;;;;;;;35.73;17.37;;;18.10;99.90;;;;;;4959551;28;89462;-32
2023/10/03 05:07:53;;;;;;;26.43;16.50;;;18.10;99.90;;;;;;4943477;28;89191;-35
2023/10/03 05:10:20;;;;;;;27.35;16.52;;;18.10;99.90;;;;;;4945543;28;89809;-34
2023/10/03 05:12:46;;;;;;;30.83;15.80;;;18.10;99.90;;;;;;4942181;28;90625;-34
2023/10/03 05:15:14;;;;;;;29.67;17.45;;;18.20;99.90;;;;;;4943809;28;89767;-36
2023/10/03 05:17:43;;;;;;;30.23;16.60;;;18.20;99.90;;;;;;4941805;28;90279;-33
2023/10/03 05:20:09;;;;;;;28.25;13.90;;;18.30;99.90;;;;;;4944457;28;88987;-37
2023/10/03 05:22:35;;;;;;;28.00;16.15;;;18.30;99.90;;;;;;4945758;28;91992;-35
2023/10/03 05:25:01;;;;;;;30.35;17.00;;;18.40;99.90;;;;;;4954140;28;90882;-33
2023/10/03 05:27:28;;;;;;;30.20;15.40;;;18.40;99.90;;;;;;4923036;28;90463;-34
2023/10/03 05:29:57;;;;;;;22.80;15.00;;;18.40;99.90;;;;;;4951898;28;89280;-35
2023/10/03 05:32:24;;;;;;;28.38;16.05;;;18.40;99.90;;;;;;4938853;28;89900;-35
2023/10/03 05:34:52;;;;;;;23.90;14.00;;;18.60;99.90;;;;;;4938953;28;89825;-35
2023/10/03 05:37:17;;;;;;;28.20;16.45;;;18.60;99.90;;;;;;4950056;28;89714;-33
2023/10/03 05:39:43;;;;;;;24.85;13.25;;;18.60;99.90;;;;;;5006975;22;90895;-33
2023/10/03 05:42:09;;;;;;;27.95;15.50;;;18.70;99.90;;;;;;4956550;28;90206;-36
2023/10/03 05:44:37;;;;;;;31.98;14.30;;;18.70;99.90;;;;;;4950034;28;89284;-33
2023/10/03 05:47:03;;;;;;;27.73;14.23;;;18.70;99.90;;;;;;4954555;28;89466;-34
2023/10/03 05:49:29;;;;;;;24.23;12.88;;;18.70;99.90;;;;;;4945867;28;90792;-34
2023/10/03 05:51:57;;;;;;;27.08;13.45;;;18.70;99.90;;;;;;4944074;28;89834;-33
2023/10/03 05:54:26;;;;;;;28.23;13.55;;;18.80;99.90;;;;;;4948503;28;89830;-34
2023/10/03 05:56:52;;;;;;;22.02;13.77;;;18.90;99.90;;;;;;4944603;28;90024;-32
2023/10/03 05:59:20;;;;;;;24.65;14.73;;;18.80;99.90;;;;;;4946270;28;89558;-34
2023/10/03 06:01:49;;;;;;;23.65;13.15;;;18.90;99.90;;;;;;4944099;28;88858;-34
2023/10/03 06:04:15;;;;;;;22.23;15.05;;;18.90;99.90;;;;;;4952115;28;90012;-35
2023/10/03 06:06:40;;;;;;;23.10;13.43;;;18.90;99.90;;;;;;4942793;28;89720;-33
2023/10/03 06:09:10;;;;;;;25.05;13.93;;;18.90;99.90;;;;;;4947843;28;88951;-36
2023/10/03 06:11:36;;;;;;;21.27;12.73;;;19.00;99.90;;;;;;4944624;28;90449;-34
2023/10/03 06:14:03;;;;;;;23.13;12.00;;;19.00;99.90;;;;;;4944732;28;90767;-33
2023/10/03 06:16:29;;;;;;;18.52;12.10;;;19.00;99.90;;;;;;4943497;28;90493;-35
2023/10/03 06:18:56;;;;;;;20.98;10.82;;;19.00;99.90;;;;;;4948491;28;88178;-33
2023/10/03 06:21:23;;;;;;;24.00;12.52;;;19.00;99.90;;;;;;4941861;28;89996;-32
2023/10/03 06:23:52;;;;;;;19.10;11.52;;;19.00;99.90;;;;;;4949685;28;89716;-35
2023/10/03 06:26:19;;;;;;;20.00;11.60;;;19.00;99.90;;;;;;4949480;28;89787;-33
2023/10/03 06:28:50;;;;;;;18.40;10.57;;;19.00;99.90;;;;;;4954116;28;89724;-36
2023/10/03 06:31:17;;;;;;;26.52;13.20;;;18.90;99.90;;;;;;4943167;28;90323;-33
2023/10/03 06:33:43;;;;;;;17.13;10.57;;;18.90;99.90;;;;;;4950763;28;89193;-36
2023/10/03 06:36:09;;;;;;;19.77;10.48;;;18.90;99.90;;;;;;4949904;28;89346;-37
2023/10/03 06:38:36;;;;;;;24.40;9.63;;;18.90;99.90;;;;;;4956842;28;90128;-36
2023/10/03 06:41:07;;;;;;;15.70;10.25;;;18.90;99.90;;;;;;4957082;28;90592;-37
2023/10/03 06:43:33;;;;;;;16.05;8.18;;;18.90;99.90;;;;;;4957627;28;89138;-35
2023/10/03 06:45:59;;;;;;;11.32;6.70;;;18.90;99.90;;;;;;4958241;28;89695;-35
2023/10/03 06:48:25;;;;;;;8.23;7.05;;;18.90;99.90;;;;;;4959354;28;88988;-35
2023/10/03 06:50:51;;;;;;;13.30;7.53;;;18.90;99.90;;;;;;4958806;28;90184;-37
2023/10/03 06:53:18;;;;;;;11.38;6.47;;;18.90;99.90;;;;;;4938932;28;90993;-36
2023/10/03 06:55:49;;;;;;;12.25;7.00;;;18.90;99.90;;;;;;4937578;28;89127;-36
2023/10/03 06:58:15;;;;;;;11.10;6.10;;;18.90;99.90;;;;;;4945956;28;87787;-36
2023/10/03 07:00:41;;;;;;;11.25;6.57;;;18.90;99.90;;;;;;4958041;28;91472;-35
2023/10/03 07:03:06;;;;;;;12.20;6.88;;;18.90;99.90;;;;;;4957746;28;90583;-34
2023/10/03 07:05:33;;;;;;;10.57;5.47;;;18.90;99.90;;;;;;4956804;28;90334;-35
2023/10/03 07:07:59;;;;;;;15.07;6.18;;;18.90;99.90;;;;;;4958422;28;90263;-35
2023/10/03 07:10:25;;;;;;;14.45;6.63;;;18.90;99.90;;;;;;4957291;28;90219;-37
2023/10/03 07:12:51;;;;;;;12.48;7.13;;;18.90;99.90;;;;;;4957545;28;89681;-37
2023/10/03 07:15:17;;;;;;;10.05;6.57;;;18.90;99.90;;;;;;4958117;28;90616;-37
2023/10/03 07:17:43;;;;;;;12.85;7.15;;;18.90;99.90;;;;;;4958246;28;89126;-37
2023/10/03 07:20:10;;;;;;;13.27;7.00;;;18.80;99.90;;;;;;4957020;28;89778;-35
2023/10/03 07:22:37;;;;;;;10.83;6.37;;;18.80;99.90;;;;;;4959172;28;90447;-35
2023/10/03 07:25:06;;;;;;;10.82;6.47;;;18.80;99.90;;;;;;4957666;28;89373;-34
2023/10/03 07:27:33;;;;;;;12.55;6.07;;;18.80;99.90;;;;;;4956987;28;88888;-36
2023/10/03 07:30:02;;;;;;;14.00;6.35;;;18.80;99.90;;;;;;4957848;28;89147;-35
2023/10/03 07:32:27;;;;;;;9.35;5.78;;;18.90;99.90;;;;;;4958541;28;90097;-34
2023/10/03 07:34:53;;;;;;;11.68;6.13;;;18.90;99.90;;;;;;4956291;28;90082;-36
2023/10/03 07:37:19;;;;;;;10.10;5.80;;;18.90;99.90;;;;;;4958209;28;89390;-37
2023/10/03 07:39:44;;;;;;;9.98;6.32;;;18.80;99.90;;;;;;4957327;28;92456;-35
2023/10/03 07:42:11;;;;;;;13.13;6.45;;;18.90;99.90;;;;;;4941897;28;90216;-37
2023/10/03 07:44:37;;;;;;;7.05;5.90;;;18.90;99.90;;;;;;4940017;28;88824;-35
2023/10/03 07:47:03;;;;;;;12.05;6.15;;;18.80;99.90;;;;;;4946595;28;88731;-35
2023/10/03 07:49:31;;;;;;;11.07;5.47;;;18.70;99.90;;;;;;4942462;28;91629;-37
2023/10/03 07:51:59;;;;;;;8.83;6.27;;;18.70;99.90;;;;;;4948536;28;90684;-36
2023/10/03 07:54:32;;;;;;;11.77;5.78;;;18.70;99.90;;;;;;4940702;28;89422;-34
2023/10/03 07:56:58;;;;;;;18.10;5.68;;;18.70;99.90;;;;;;4947573;28;88895;-35
2023/10/03 07:59:25;;;;;;;7.60;5.93;;;18.60;99.90;;;;;;4938806;28;89582;-36
2023/10/03 08:01:51;;;;;;;9.75;6.20;;;18.50;99.90;;;;;;4937700;28;88461;-34
2023/10/03 08:04:17;;;;;;;11.52;6.70;;;18.50;99.90;;;;;;4954166;28;89047;-35
2023/10/03 08:06:43;;;;;;;10.90;5.70;;;18.40;99.90;;;;;;4957963;28;89643;-35
2023/10/03 08:09:10;;;;;;;14.02;6.65;;;18.40;99.90;;;;;;4954500;28;90437;-34
2023/10/03 08:11:36;;;;;;;11.53;6.17;;;18.30;99.90;;;;;;4956250;28;89610;-36
2023/10/03 08:14:16;;;;;;;12.63;6.00;;;18.20;99.90;;;;;;4957113;28;89158;-35
2023/10/03 08:16:42;;;;;;;14.02;6.05;;;18.20;99.90;;;;;;4956647;28;89726;-35
2023/10/03 08:19:08;;;;;;;13.93;7.72;;;18.20;99.90;;;;;;4955731;28;89880;-33
2023/10/03 08:21:35;;;;;;;10.55;7.78;;;18.20;99.90;;;;;;4955977;28;89757;-37
2023/10/03 08:24:09;;;;;;;12.43;6.97;;;18.10;99.90;;;;;;4957020;28;90643;-34
2023/10/03 08:26:39;;;;;;;9.20;6.78;;;18.00;99.90;;;;;;4956102;28;90130;-36
2023/10/03 08:29:04;;;;;;;9.05;6.10;;;17.90;99.90;;;;;;4956753;28;90143;-36
2023/10/03 08:31:32;;;;;;;13.32;6.95;;;17.90;99.90;;;;;;4954721;28;89712;-35
2023/10/03 08:33:58;;;;;;;11.07;7.60;;;17.80;99.90;;;;;;4955760;28;91498;-34
2023/10/03 08:36:29;;;;;;;9.75;6.10;;;17.80;99.90;;;;;;4955737;28;88788;-37
2023/10/03 08:39:04;;;;;;;8.93;6.85;;;17.70;99.90;;;;;;4954653;28;90183;-32
2023/10/03 08:41:49;;;;;;;12.70;7.28;;;17.70;99.90;;;;;;4936273;28;90060;-36
2023/10/03 08:44:15;;;;;;;9.75;5.35;;;17.60;99.90;;;;;;4942269;28;90199;-36
2023/10/03 08:46:48;;;;;;;9.23;6.20;;;17.70;99.90;;;;;;4950280;28;88564;-35
2023/10/03 08:49:17;;;;;;;6.82;4.50;;;17.70;99.90;;;;;;4953333;28;92288;-34
2023/10/03 08:51:45;;;;;;;8.15;4.63;;;17.70;99.90;;;;;;4944365;28;88576;-34
2023/10/03 08:54:12;;;;;;;6.22;4.60;;;17.70;99.90;;;;;;4942731;28;89602;-35
2023/10/03 08:56:41;;;;;;;6.82;4.50;;;17.70;99.90;;;;;;4944038;28;87720;-36
2023/10/03 08:59:15;;;;;;;4.03;3.53;;;17.60;99.90;;;;;;4942938;28;89347;-35
2023/10/03 09:01:46;;;;;;;7.28;4.00;;;17.70;99.90;;;;;;4946603;28;89489;-35
2023/10/03 09:04:16;;;;;;;8.73;4.00;;;17.60;99.90;;;;;;4939527;28;89135;-34
2023/10/03 09:06:43;;;;;;;8.80;3.85;;;17.60;99.90;;;;;;4937116;28;89090;-36
2023/10/03 09:09:13;;;;;;;6.95;3.63;;;17.70;99.90;;;;;;4937176;28;90712;-34
2023/10/03 09:11:41;;;;;;;8.45;4.15;;;17.70;99.90;;;;;;4936632;28;89326;-33
2023/10/03 09:14:07;;;;;;;8.27;2.97;;;17.60;99.90;;;;;;4937578;28;89420;-35
2023/10/03 09:16:39;;;;;;;10.23;3.25;;;17.60;99.90;;;;;;4944318;28;88501;-37
2023/10/03 09:19:05;;;;;;;6.57;3.10;;;17.60;99.90;;;;;;4948987;28;89667;-33
2023/10/03 09:21:33;;;;;;;9.77;3.65;;;17.60;99.90;;;;;;4951657;28;89865;-34
2023/10/03 09:24:09;;;;;;;4.45;2.05;;;17.40;99.90;;;;;;4941758;28;91960;-34
2023/10/03 09:26:46;;;;;;;5.80;2.35;;;17.50;99.90;;;;;;4952915;28;89701;-37
2023/10/03 09:29:18;;;;;;;4.43;2.28;;;17.50;99.90;;;;;;4940881;28;90210;-35
2023/10/03 09:31:48;;;;;;;7.63;2.45;;;17.50;99.90;;;;;;4957015;28;90917;-35
2023/10/03 09:34:17;;;;;;;3.35;1.98;;;17.50;99.90;;;;;;4947466;28;89333;-36
2023/10/03 09:36:43;;;;;;;8.25;2.40;;;17.50;99.90;;;;;;4941060;28;89328;-34
2023/10/03 09:39:20;;;;;;;4.70;1.88;;;17.40;99.90;;;;;;4956360;28;89997;-35
2023/10/03 09:41:54;;;;;;;6.00;2.25;;;17.40;99.90;;;;;;4947855;28;90023;-35
2023/10/03 09:44:29;;;;;;;2.60;1.52;;;17.40;99.90;;;;;;4947079;28;89626;-34
2023/10/03 09:47:00;;;;;;;3.13;1.80;;;17.40;99.90;;;;;;4950890;28;89268;-33
2023/10/03 09:49:39;;;;;;;5.00;1.80;;;17.40;99.90;;;;;;4959663;28;90666;-35
2023/10/03 09:52:09;;;;;;;3.17;1.17;;;17.40;99.90;;;;;;4957579;28;90291;-36
2023/10/03 09:54:36;;;;;;;2.55;0.77;;;17.10;99.90;;;;;;4956199;28;88375;-33
2023/10/03 09:57:15;;;;;;;1.30;0.70;;;17.10;99.90;;;;;;4957611;28;89776;-34
2023/10/03 09:59:48;;;;;;;5.95;1.02;;;17.00;99.90;;;;;;4956811;28;91220;-34
2023/10/03 10:02:36;;;;;;;2.92;1.13;;;17.00;99.90;;;;;;4957757;28;89898;-34
2023/10/03 10:05:20;;;;;;;4.77;0.83;;;16.90;99.90;;;;;;4954857;28;88335;-35
2023/10/03 10:08:17;;;;;;;2.53;0.90;;;16.90;99.90;;;;;;4954681;28;88259;-34
2023/10/03 10:11:01;;;;;;;1.45;0.75;;;16.80;99.90;;;;;;4952459;28;89523;-32
2023/10/03 10:13:34;;;;;;;2.55;0.95;;;16.80;99.90;;;;;;4952649;28;90065;-33
2023/10/03 10:16:13;;;;;;;4.55;1.38;;;16.70;99.90;;;;;;4948918;28;88870;-32
2023/10/03 10:18:45;;;;;;;1.00;0.85;;;16.70;99.90;;;;;;4953070;28;89686;-35
2023/10/03 10:21:31;;;;;;;2.97;0.50;;;16.70;99.90;;;;;;4955706;28;90384;-36
2023/10/03 10:24:15;;;;;;;1.70;0.55;;;16.70;99.90;;;;;;4954663;28;90414;-34
2023/10/03 10:26:41;;;;;;;1.90;0.55;;;16.70;99.90;;;;;;4955187;28;90261;-34
2023/10/03 10:29:09;;;;;;;2.38;0.57;;;16.60;99.90;;;;;;4956033;28;90174;-34
2023/10/03 10:31:38;;;;;;;1.00;0.90;;;16.60;99.90;;;;;;4954336;28;89975;-37
2023/10/03 10:34:20;;;;;;;0.60;0.50;;;16.60;99.90;;;;;;4955407;28;90037;-33
2023/10/03 10:37:01;;;;;;;2.50;0.93;;;16.60;99.90;;;;;;4954668;28;90886;-35
2023/10/03 10:40:10;;;;;;;6.32;1.00;;;16.50;99.90;;;;;;4958768;28;89088;-36
2023/10/03 10:42:55;;;;;;;5.22;1.00;;;16.50;99.90;;;;;;4940922;28;90513;-33
2023/10/03 10:45:21;;;;;;;3.08;0.82;;;16.50;99.90;;;;;;4951866;28;89472;-36
2023/10/03 10:47:50;;;;;;;2.35;1.02;;;16.50;99.90;;;;;;4952197;28;89643;-33
2023/10/03 10:50:25;;;;;;;3.33;0.80;;;16.60;99.90;;;;;;4957856;28;90887;-36
2023/10/03 10:53:02;;;;;;;5.18;1.42;;;16.50;99.90;;;;;;4955501;28;90488;-34
2023/10/03 10:55:28;;;;;;;4.47;1.10;;;16.50;99.90;;;;;;4956425;28;89272;-32
2023/10/03 10:58:07;;;;;;;3.03;1.13;;;16.60;99.90;;;;;;4956475;28;90771;-35
2023/10/03 11:00:33;;;;;;;1.52;0.73;;;16.40;99.90;;;;;;4956139;28;89086;-36
2023/10/03 11:03:03;;;;;;;0.85;0.60;;;16.40;99.90;;;;;;4956691;28;90162;-33
2023/10/03 11:05:49;;;;;;;2.55;0.95;;;16.50;99.90;;;;;;4955890;28;89225;-35
2023/10/03 11:08:17;;;;;;;3.00;1.33;;;16.50;99.90;;;;;;4958178;28;90333;-36
2023/10/03 11:10:56;;;;;;;;;;;16.60;99.90;;;;;;4958229;28;89762;-34
2023/10/03 11:13:22;;;;;;;3.53;1.10;;;16.60;99.90;;;;;;4958356;28;90721;-35
2023/10/03 11:15:53;;;;;;;5.05;1.10;;;16.60;99.90;;;;;;4957285;28;90691;-37
2023/10/03 11:18:28;;;;;;;2.85;1.40;;;16.70;99.90;;;;;;4957725;28;90316;-34
2023/10/03 11:20:55;;;;;;;3.30;1.45;;;16.80;99.90;;;;;;4959660;28;89056;-35
2023/10/03 11:23:23;;;;;;;2.63;1.10;;;16.80;99.90;;;;;;4956849;28;90928;-34
2023/10/03 11:25:59;;;;;;;4.97;1.90;;;16.90;99.90;;;;;;4957602;28;90078;-33
2023/10/03 11:28:28;;;;;;;2.40;0.98;;;17.00;99.90;;;;;;4957915;28;89557;-36
2023/10/03 11:31:02;;;;;;;4.25;1.25;;;17.00;99.90;;;;;;4959776;28;89387;-32
2023/10/03 11:33:27;;;;;;;2.95;0.95;;;17.10;99.90;;;;;;4957827;28;89090;-33
2023/10/03 11:35:54;;;;;;;3.60;1.35;;;17.20;99.90;;;;;;4958133;28;89481;-33
2023/10/03 11:38:19;;;;;;;2.90;0.82;;;17.30;99.90;;;;;;4959521;28;89826;-34
2023/10/03 11:40:47;;;;;;;9.90;1.98;;;17.20;99.90;;;;;;4947495;28;89889;-34
2023/10/03 11:43:20;;;;;;;9.67;1.63;;;17.20;99.90;;;;;;4948434;28;90111;-37
2023/10/03 11:45:55;;;;;;;3.75;1.63;;;17.10;99.90;;;;;;4944942;28;89562;-33
2023/10/03 11:48:22;;;;;;;1.95;1.30;;;16.90;99.90;;;;;;4959086;28;90287;-35
2023/10/03 11:50:49;;;;;;;1.10;0.82;;;16.70;99.90;;;;;;4959936;28;88932;-34
2023/10/03 11:53:15;;;;;;;3.92;1.27;;;16.50;99.90;;;;;;4959230;28;90175;-37
2023/10/03 11:55:42;;;;;;;2.78;1.35;;;16.30;99.90;;;;;;4958219;28;88540;-36
2023/10/03 11:58:11;;;;;;;6.85;0.93;;;16.20;99.90;;;;;;4958072;28;89169;-35
2023/10/03 12:00:37;;;;;;;2.33;1.30;;;16.10;99.90;;;;;;4959060;28;88688;-36
2023/10/03 12:03:09;;;;;;;4.68;1.08;;;15.90;99.90;;;;;;4958588;28;90856;-36
2023/10/03 12:05:36;;;;;;;4.47;1.00;;;15.90;99.90;;;;;;4957556;28;90069;-34
2023/10/03 12:08:04;;;;;;;2.17;1.35;;;15.70;99.90;;;;;;4959749;28;91564;-33
2023/10/03 12:10:31;;;;;;;2.67;1.00;;;15.70;99.90;;;;;;4959459;28;87955;-37
2023/10/03 12:12:58;;;;;;;7.90;1.83;;;15.60;99.90;;;;;;4959417;28;89963;-36
2023/10/03 12:15:24;;;;;;;3.83;1.65;;;15.60;99.90;;;;;;4957549;28;89577;-35
2023/10/03 12:17:51;;;;;;;3.78;1.63;;;15.60;99.90;;;;;;4959182;28;89275;-34
2023/10/03 12:20:18;;;;;;;2.50;1.48;;;15.50;99.90;;;;;;4946211;28;89512;-36
2023/10/03 12:22:49;;;;;;;2.60;1.35;;;15.50;99.90;;;;;;4959627;28;90039;-36
2023/10/03 12:25:16;;;;;;;2.35;1.45;;;15.40;99.90;;;;;;4957845;28;89619;-35
2023/10/03 12:27:43;;;;;;;6.30;1.10;;;15.40;99.90;;;;;;4958698;28;89874;-34
2023/10/03 12:30:15;;;;;;;5.38;2.20;;;15.30;99.90;;;;;;4957143;28;90385;-35
2023/10/03 12:32:46;;;;;;;7.78;2.08;;;15.30;99.90;;;;;;4958288;28;89835;-34
2023/10/03 12:35:12;;;;;;;9.30;2.97;;;15.30;99.90;;;;;;4946052;28;90010;-33
2023/10/03 12:37:39;;;;;;;7.03;2.15;;;15.30;99.90;;;;;;4958430;28;89034;-34
2023/10/03 12:40:13;;;;;;;7.50;2.25;;;15.30;99.90;;;;;;4959236;28;89314;-36
2023/10/03 12:42:47;;;;;;;7.65;2.15;;;15.20;99.90;;;;;;4945850;28;88885;-34
2023/10/03 12:45:16;;;;;;;5.32;2.25;;;15.20;99.90;;;;;;4946499;28;89640;-35
2023/10/03 12:48:05;;;;;;;3.95;3.00;;;15.20;99.90;;;;;;4953641;28;89088;-35
2023/10/03 12:50:28;;;;;;;6.63;2.22;;;15.10;99.90;;;;;;4958843;28;89243;-35